sensor_id;sensor_type;location;lat;lon;timestamp;temperature;humidity
13409;DHT22;6775;49.574;11.170;2023-05-10T00:01:02;14.50;99.90
13409;DHT22;6775;49.574;11.170;2023-05-10T00:03:30;14.40;99.90
13409;DHT22;6775;49.574;11.170;2023-05-10T00:05:58;14.40;99.90
13409;DHT22;6775;49.574;11.170;2023-05-10T00:08:26;14.40;99.90
13409;DHT22;6775;49.574;11.170;2023-05-10T00:10:54;14.40;99.90
13409;DHT22;6775;49.574;11.170;2023-05-10T00:13:22;14.40;99.90
13409;DHT22;6775;49.574;11.170;2023-05-10T00:15:50;14.40;99.90
13409;DHT22;6775;49.574;11.170;2023-05-10T00:18:19;14.40;99.90
13409;DHT22;6775;49.574;11.170;2023-05-10T00:20:47;14.50;99.90
13409;DHT22;6775;49.574;11.170;2023-05-10T00:23:15;14.60;99.90
13409;DHT22;6775;49.574;11.170;2023-05-10T00:25:43;14.60;99.90
13409;DHT22;6775;49.574;11.170;2023-05-10T00:28:10;14.70;99.90
13409;DHT22;6775;49.574;11.170;2023-05-10T00:30:38;14.70;99.90
13409;DHT22;6775;49.574;11.170;2023-05-10T00:33:06;14.70;99.90
13409;DHT22;6775;49.574;11.170;2023-05-10T00:35:35;14.60;99.90
13409;DHT22;6775;49.574;11.170;2023-05-10T00:38:04;14.60;99.90
13409;DHT22;6775;49.574;11.170;2023-05-10T00:40:32;14.60;99.90
13409;DHT22;6775;49.574;11.170;2023-05-10T00:42:59;14.60;99.90
13409;DHT22;6775;49.574;11.170;2023-05-10T00:45:28;14.60;99.90
13409;DHT22;6775;49.574;11.170;2023-05-10T00:47:56;14.60;99.90
13409;DHT22;6775;49.574;11.170;2023-05-10T00:50:24;14.60;99.90
13409;DHT22;6775;49.574;11.170;2023-05-10T00:52:54;14.60;99.90
13409;DHT22;6775;49.574;11.170;2023-05-10T00:55:22;14.60;99.90
13409;DHT22;6775;49.574;11.170;2023-05-10T00:57:49;14.60;99.90
13409;DHT22;6775;49.574;11.170;2023-05-10T01:00:18;14.60;99.90
13409;DHT22;6775;49.574;11.170;2023-05-10T01:02:46;14.60;99.90
13409;DHT22;6775;49.574;11.170;2023-05-10T01:05:14;14.50;99.90
13409;DHT22;6775;49.574;11.170;2023-05-10T01:07:42;14.50;99.90
13409;DHT22;6775;49.574;11.170;2023-05-10T01:10:11;14.60;99.90
13409;DHT22;6775;49.574;11.170;2023-05-10T01:12:42;14.50;99.90
13409;DHT22;6775;49.574;11.170;2023-05-10T01:15:11;14.40;99.90
13409;DHT22;6775;49.574;11.170;2023-05-10T01:17:42;14.30;99.90
13409;DHT22;6775;49.574;11.170;2023-05-10T01:20:12;14.30;99.90
13409;DHT22;6775;49.574;11.170;2023-05-10T01:22:57;14.30;99.90
13409;DHT22;6775;49.574;11.170;2023-05-10T01:26:02;14.30;99.90
13409;DHT22;6775;49.574;11.170;2023-05-10T01:31:52;14.20;99.90
13409;DHT22;6775;49.574;11.170;2023-05-10T01:34:27;14.20;99.90
13409;DHT22;6775;49.574;11.170;2023-05-10T01:37:02;14.20;99.90
13409;DHT22;6775;49.574;11.170;2023-05-10T01:39:36;14.20;99.90
13409;DHT22;6775;49.574;11.170;2023-05-10T01:42:10;14.20;99.90
13409;DHT22;6775;49.574;11.170;2023-05-10T01:44:42;14.20;99.90
13409;DHT22;6775;49.574;11.170;2023-05-10T01:47:15;14.10;99.90
13409;DHT22;6775;49.574;11.170;2023-05-10T01:49:47;14.10;99.90
13409;DHT22;6775;49.574;11.170;2023-05-10T01:52:18;14.10;99.90
13409;DHT22;6775;49.574;11.170;2023-05-10T01:54:51;14.10;99.90
13409;DHT22;6775;49.574;11.170;2023-05-10T01:57:22;14.20;99.90
13409;DHT22;6775;49.574;11.170;2023-05-10T01:59:52;14.10;99.90
13409;DHT22;6775;49.574;11.170;2023-05-10T02:02:23;14.10;99.90
13409;DHT22;6775;49.574;11.170;2023-05-10T02:04:53;14.10;99.90
13409;DHT22;6775;49.574;11.170;2023-05-10T02:07:22;14.10;99.90
13409;DHT22;6775;49.574;11.170;2023-05-10T02:09:51;14.10;99.90
13409;DHT22;6775;49.574;11.170;2023-05-10T02:12:20;14.00;99.90
13409;DHT22;6775;49.574;11.170;2023-05-10T02:14:48;14.00;99.90
13409;DHT22;6775;49.574;11.170;2023-05-10T02:17:17;14.00;99.90
13409;DHT22;6775;49.574;11.170;2023-05-10T02:19:47;14.00;99.90
13409;DHT22;6775;49.574;11.170;2023-05-10T02:22:16;13.90;99.90
13409;DHT22;6775;49.574;11.170;2023-05-10T02:24:45;13.90;99.90
13409;DHT22;6775;49.574;11.170;2023-05-10T02:27:15;14.00;99.90
13409;DHT22;6775;49.574;11.170;2023-05-10T02:29:44;14.00;99.90
13409;DHT22;6775;49.574;11.170;2023-05-10T02:32:14;13.90;99.90
13409;DHT22;6775;49.574;11.170;2023-05-10T02:34:43;13.90;99.90
13409;DHT22;6775;49.574;11.170;2023-05-10T02:37:14;13.90;99.90
13409;DHT22;6775;49.574;11.170;2023-05-10T02:39:43;13.90;99.90
13409;DHT22;6775;49.574;11.170;2023-05-10T02:42:16;13.90;99.90
13409;DHT22;6775;49.574;11.170;2023-05-10T02:44:48;13.90;99.90
13409;DHT22;6775;49.574;11.170;2023-05-10T02:47:16;14.00;99.90
13409;DHT22;6775;49.574;11.170;2023-05-10T02:49:44;14.00;99.90
13409;DHT22;6775;49.574;11.170;2023-05-10T02:52:16;14.00;99.90
13409;DHT22;6775;49.574;11.170;2023-05-10T02:54:45;14.10;99.90
13409;DHT22;6775;49.574;11.170;2023-05-10T02:57:16;14.00;99.90
13409;DHT22;6775;49.574;11.170;2023-05-10T02:59:45;14.00;99.90
13409;DHT22;6775;49.574;11.170;2023-05-10T03:02:13;14.00;99.90
13409;DHT22;6775;49.574;11.170;2023-05-10T03:04:41;14.00;99.90
13409;DHT22;6775;49.574;11.170;2023-05-10T03:07:09;14.00;99.90
13409;DHT22;6775;49.574;11.170;2023-05-10T03:09:38;14.00;99.90
13409;DHT22;6775;49.574;11.170;2023-05-10T03:12:14;14.10;99.90
13409;DHT22;6775;49.574;11.170;2023-05-10T03:14:49;14.10;99.90
13409;DHT22;6775;49.574;11.170;2023-05-10T03:17:23;14.10;99.90
13409;DHT22;6775;49.574;11.170;2023-05-10T03:19:54;14.10;99.90
13409;DHT22;6775;49.574;11.170;2023-05-10T03:22:26;14.10;99.90
13409;DHT22;6775;49.574;11.170;2023-05-10T03:24:57;14.10;99.90
13409;DHT22;6775;49.574;11.170;2023-05-10T03:27:26;14.20;99.90
13409;DHT22;6775;49.574;11.170;2023-05-10T03:29:55;14.20;99.90
13409;DHT22;6775;49.574;11.170;2023-05-10T03:32:24;14.20;99.90
13409;DHT22;6775;49.574;11.170;2023-05-10T03:34:53;14.30;99.90
13409;DHT22;6775;49.574;11.170;2023-05-10T03:37:21;14.30;99.90
13409;DHT22;6775;49.574;11.170;2023-05-10T03:39:49;14.30;99.90
13409;DHT22;6775;49.574;11.170;2023-05-10T03:42:18;15.00;99.90
13409;DHT22;6775;49.574;11.170;2023-05-10T03:44:46;14.30;99.90
13409;DHT22;6775;49.574;11.170;2023-05-10T03:47:15;14.20;99.90
13409;DHT22;6775;49.574;11.170;2023-05-10T03:49:43;14.20;99.90
13409;DHT22;6775;49.574;11.170;2023-05-10T03:52:11;14.20;99.90
13409;DHT22;6775;49.574;11.170;2023-05-10T03:54:39;14.20;99.90
13409;DHT22;6775;49.574;11.170;2023-05-10T03:57:07;14.20;99.90
13409;DHT22;6775;49.574;11.170;2023-05-10T03:59:37;14.20;99.90
13409;DHT22;6775;49.574;11.170;2023-05-10T04:02:05;14.20;99.90
13409;DHT22;6775;49.574;11.170;2023-05-10T04:04:33;14.20;99.90
13409;DHT22;6775;49.574;11.170;2023-05-10T04:07:01;14.20;99.90
13409;DHT22;6775;49.574;11.170;2023-05-10T04:09:29;14.20;99.90
13409;DHT22;6775;49.574;11.170;2023-05-10T04:11:58;14.30;99.90
13409;DHT22;6775;49.574;11.170;2023-05-10T04:14:26;14.20;99.90
13409;DHT22;6775;49.574;11.170;2023-05-10T04:16:55;14.20;99.90
13409;DHT22;6775;49.574;11.170;2023-05-10T04:19:23;14.20;99.90
13409;DHT22;6775;49.574;11.170;2023-05-10T04:21:51;14.10;99.90
13409;DHT22;6775;49.574;11.170;2023-05-10T04:24:18;14.20;99.90
13409;DHT22;6775;49.574;11.170;2023-05-10T04:26:46;14.20;99.90
13409;DHT22;6775;49.574;11.170;2023-05-10T04:29:14;14.20;99.90
13409;DHT22;6775;49.574;11.170;2023-05-10T04:31:42;14.20;99.90
13409;DHT22;6775;49.574;11.170;2023-05-10T04:34:11;14.20;99.90
13409;DHT22;6775;49.574;11.170;2023-05-10T04:36:39;14.20;99.90
13409;DHT22;6775;49.574;11.170;2023-05-10T04:39:07;14.10;99.90
13409;DHT22;6775;49.574;11.170;2023-05-10T04:41:35;14.10;99.90
13409;DHT22;6775;49.574;11.170;2023-05-10T04:44:05;14.10;99.90
13409;DHT22;6775;49.574;11.170;2023-05-10T04:46:33;14.10;99.90
13409;DHT22;6775;49.574;11.170;2023-05-10T04:49:00;14.10;99.90
13409;DHT22;6775;49.574;11.170;2023-05-10T04:51:30;14.10;99.90
13409;DHT22;6775;49.574;11.170;2023-05-10T04:53:58;14.10;99.90
13409;DHT22;6775;49.574;11.170;2023-05-10T04:56:31;14.10;99.90
13409;DHT22;6775;49.574;11.170;2023-05-10T04:58:59;14.10;99.90
13409;DHT22;6775;49.574;11.170;2023-05-10T05:01:27;14.00;99.90
13409;DHT22;6775;49.574;11.170;2023-05-10T05:03:55;14.00;99.90
13409;DHT22;6775;49.574;11.170;2023-05-10T05:06:23;14.00;99.90
13409;DHT22;6775;49.574;11.170;2023-05-10T05:08:55;14.00;99.90
13409;DHT22;6775;49.574;11.170;2023-05-10T05:11:22;14.00;99.90
13409;DHT22;6775;49.574;11.170;2023-05-10T05:13:50;14.00;99.90
13409;DHT22;6775;49.574;11.170;2023-05-10T05:16:18;14.00;99.90
13409;DHT22;6775;49.574;11.170;2023-05-10T05:18:46;13.90;99.90
13409;DHT22;6775;49.574;11.170;2023-05-10T05:21:14;14.00;99.90
13409;DHT22;6775;49.574;11.170;2023-05-10T05:23:43;14.00;99.90
13409;DHT22;6775;49.574;11.170;2023-05-10T05:26:12;14.00;99.90
13409;DHT22;6775;49.574;11.170;2023-05-10T05:28:39;14.00;99.90
13409;DHT22;6775;49.574;11.170;2023-05-10T05:31:07;14.00;99.90
13409;DHT22;6775;49.574;11.170;2023-05-10T05:33:36;14.00;99.90
13409;DHT22;6775;49.574;11.170;2023-05-10T05:36:05;14.00;99.90
13409;DHT22;6775;49.574;11.170;2023-05-10T05:38:33;14.10;99.90
13409;DHT22;6775;49.574;11.170;2023-05-10T05:41:00;14.10;99.90
13409;DHT22;6775;49.574;11.170;2023-05-10T05:43:30;14.00;99.90
13409;DHT22;6775;49.574;11.170;2023-05-10T05:45:58;14.20;99.90
13409;DHT22;6775;49.574;11.170;2023-05-10T05:48:26;14.10;99.90
13409;DHT22;6775;49.574;11.170;2023-05-10T05:50:54;14.10;99.90
13409;DHT22;6775;49.574;11.170;2023-05-10T05:53:23;14.20;99.90
13409;DHT22;6775;49.574;11.170;2023-05-10T05:55:52;14.30;99.90
13409;DHT22;6775;49.574;11.170;2023-05-10T05:58:20;14.30;99.90
13409;DHT22;6775;49.574;11.170;2023-05-10T06:00:50;14.30;99.90
13409;DHT22;6775;49.574;11.170;2023-05-10T06:03:18;14.30;99.90
13409;DHT22;6775;49.574;11.170;2023-05-10T06:05:47;14.30;99.90
13409;DHT22;6775;49.574;11.170;2023-05-10T06:08:15;14.30;99.90
13409;DHT22;6775;49.574;11.170;2023-05-10T06:10:42;14.40;99.90
13409;DHT22;6775;49.574;11.170;2023-05-10T06:13:10;14.40;99.90
13409;DHT22;6775;49.574;11.170;2023-05-10T06:15:38;14.40;99.90
13409;DHT22;6775;49.574;11.170;2023-05-10T06:18:07;14.40;99.90
13409;DHT22;6775;49.574;11.170;2023-05-10T06:20:35;14.50;99.90
13409;DHT22;6775;49.574;11.170;2023-05-10T06:23:03;14.40;99.90
13409;DHT22;6775;49.574;11.170;2023-05-10T06:25:31;14.50;99.90
13409;DHT22;6775;49.574;11.170;2023-05-10T06:27:59;14.50;99.90
13409;DHT22;6775;49.574;11.170;2023-05-10T06:30:26;14.50;99.90
13409;DHT22;6775;49.574;11.170;2023-05-10T06:32:56;14.50;99.90
13409;DHT22;6775;49.574;11.170;2023-05-10T06:35:25;14.50;99.90
13409;DHT22;6775;49.574;11.170;2023-05-10T06:37:53;14.60;99.90
13409;DHT22;6775;49.574;11.170;2023-05-10T06:40:21;14.70;99.90
13409;DHT22;6775;49.574;11.170;2023-05-10T06:42:49;14.60;99.90
13409;DHT22;6775;49.574;11.170;2023-05-10T06:45:17;14.70;99.90
13409;DHT22;6775;49.574;11.170;2023-05-10T06:47:45;14.80;99.90
13409;DHT22;6775;49.574;11.170;2023-05-10T06:50:13;14.80;99.90
13409;DHT22;6775;49.574;11.170;2023-05-10T06:52:42;14.80;99.90
13409;DHT22;6775;49.574;11.170;2023-05-10T06:55:10;14.90;99.90
13409;DHT22;6775;49.574;11.170;2023-05-10T06:57:38;14.90;99.90
13409;DHT22;6775;49.574;11.170;2023-05-10T07:00:07;15.00;99.90
13409;DHT22;6775;49.574;11.170;2023-05-10T07:02:36;15.10;99.90
13409;DHT22;6775;49.574;11.170;2023-05-10T07:05:04;15.20;99.90
13409;DHT22;6775;49.574;11.170;2023-05-10T07:07:32;15.30;99.90
13409;DHT22;6775;49.574;11.170;2023-05-10T07:10:02;15.40;99.90
13409;DHT22;6775;49.574;11.170;2023-05-10T07:12:30;15.50;99.90
13409;DHT22;6775;49.574;11.170;2023-05-10T07:14:57;15.60;99.90
13409;DHT22;6775;49.574;11.170;2023-05-10T07:17:25;15.60;99.90
13409;DHT22;6775;49.574;11.170;2023-05-10T07:19:53;15.60;99.90
13409;DHT22;6775;49.574;11.170;2023-05-10T07:22:21;15.70;99.90
13409;DHT22;6775;49.574;11.170;2023-05-10T07:24:49;15.80;99.90
13409;DHT22;6775;49.574;11.170;2023-05-10T07:27:18;15.90;99.90
13409;DHT22;6775;49.574;11.170;2023-05-10T07:29:46;15.90;99.90
13409;DHT22;6775;49.574;11.170;2023-05-10T07:32:13;16.00;99.90
13409;DHT22;6775;49.574;11.170;2023-05-10T07:34:41;16.00;99.90
13409;DHT22;6775;49.574;11.170;2023-05-10T07:37:09;16.00;99.90
13409;DHT22;6775;49.574;11.170;2023-05-10T07:39:37;16.00;99.90
13409;DHT22;6775;49.574;11.170;2023-05-10T07:42:05;16.10;99.90
13409;DHT22;6775;49.574;11.170;2023-05-10T07:44:34;16.10;99.90
13409;DHT22;6775;49.574;11.170;2023-05-10T07:47:02;16.20;99.90
13409;DHT22;6775;49.574;11.170;2023-05-10T07:49:30;16.20;99.90
13409;DHT22;6775;49.574;11.170;2023-05-10T07:51:57;16.20;99.90
13409;DHT22;6775;49.574;11.170;2023-05-10T07:54:25;16.20;99.90
13409;DHT22;6775;49.574;11.170;2023-05-10T07:56:53;16.20;99.90
13409;DHT22;6775;49.574;11.170;2023-05-10T07:59:21;16.20;99.90
13409;DHT22;6775;49.574;11.170;2023-05-10T08:01:50;16.20;99.90
13409;DHT22;6775;49.574;11.170;2023-05-10T08:04:18;16.10;99.90
13409;DHT22;6775;49.574;11.170;2023-05-10T08:06:46;16.10;99.90
13409;DHT22;6775;49.574;11.170;2023-05-10T08:09:13;16.00;99.90
13409;DHT22;6775;49.574;11.170;2023-05-10T08:11:41;15.90;99.90
13409;DHT22;6775;49.574;11.170;2023-05-10T08:14:09;15.80;99.90
13409;DHT22;6775;49.574;11.170;2023-05-10T08:16:37;15.70;99.90
13409;DHT22;6775;49.574;11.170;2023-05-10T08:19:06;15.60;99.90
13409;DHT22;6775;49.574;11.170;2023-05-10T08:21:34;15.60;99.90
13409;DHT22;6775;49.574;11.170;2023-05-10T08:24:02;15.60;99.90
13409;DHT22;6775;49.574;11.170;2023-05-10T08:26:31;15.60;99.90
13409;DHT22;6775;49.574;11.170;2023-05-10T08:28:59;15.60;99.90
13409;DHT22;6775;49.574;11.170;2023-05-10T08:31:27;15.60;99.90
13409;DHT22;6775;49.574;11.170;2023-05-10T08:33:55;15.50;99.90
13409;DHT22;6775;49.574;11.170;2023-05-10T08:36:24;15.50;99.90
13409;DHT22;6775;49.574;11.170;2023-05-10T08:38:53;15.50;99.90
13409;DHT22;6775;49.574;11.170;2023-05-10T08:41:22;15.60;99.90
13409;DHT22;6775;49.574;11.170;2023-05-10T08:43:52;15.60;99.90
13409;DHT22;6775;49.574;11.170;2023-05-10T08:46:22;15.60;99.90
13409;DHT22;6775;49.574;11.170;2023-05-10T08:48:51;15.60;99.90
13409;DHT22;6775;49.574;11.170;2023-05-10T08:51:22;15.60;99.90
13409;DHT22;6775;49.574;11.170;2023-05-10T08:53:51;15.60;99.90
13409;DHT22;6775;49.574;11.170;2023-05-10T08:56:20;15.70;99.90
13409;DHT22;6775;49.574;11.170;2023-05-10T08:58:48;15.80;99.90
13409;DHT22;6775;49.574;11.170;2023-05-10T09:01:16;15.90;99.90
13409;DHT22;6775;49.574;11.170;2023-05-10T09:03:46;16.00;99.90
13409;DHT22;6775;49.574;11.170;2023-05-10T09:06:14;16.10;99.90
13409;DHT22;6775;49.574;11.170;2023-05-10T09:08:42;16.20;99.90
13409;DHT22;6775;49.574;11.170;2023-05-10T09:11:12;16.20;99.90
13409;DHT22;6775;49.574;11.170;2023-05-10T09:13:41;16.30;99.90
13409;DHT22;6775;49.574;11.170;2023-05-10T09:16:09;16.20;99.90
13409;DHT22;6775;49.574;11.170;2023-05-10T09:18:48;16.20;99.90
13409;DHT22;6775;49.574;11.170;2023-05-10T09:21:16;16.10;99.90
13409;DHT22;6775;49.574;11.170;2023-05-10T09:23:44;16.00;99.90
13409;DHT22;6775;49.574;11.170;2023-05-10T09:26:16;15.90;99.90
13409;DHT22;6775;49.574;11.170;2023-05-10T09:28:51;15.80;99.90
13409;DHT22;6775;49.574;11.170;2023-05-10T09:31:19;15.70;99.90
13409;DHT22;6775;49.574;11.170;2023-05-10T09:33:48;15.50;99.90
13409;DHT22;6775;49.574;11.170;2023-05-10T09:36:17;15.40;99.90
13409;DHT22;6775;49.574;11.170;2023-05-10T09:38:45;15.90;99.90
13409;DHT22;6775;49.574;11.170;2023-05-10T09:41:19;15.60;99.90
13409;DHT22;6775;49.574;11.170;2023-05-10T09:43:48;15.90;99.90
13409;DHT22;6775;49.574;11.170;2023-05-10T09:46:17;16.10;99.90
13409;DHT22;6775;49.574;11.170;2023-05-10T09:48:46;16.40;99.90
13409;DHT22;6775;49.574;11.170;2023-05-10T09:51:24;16.80;99.90
13409;DHT22;6775;49.574;11.170;2023-05-10T09:54:09;17.20;99.90
13409;DHT22;6775;49.574;11.170;2023-05-10T09:56:39;17.50;99.90
13409;DHT22;6775;49.574;11.170;2023-05-10T09:59:09;17.80;99.90
13409;DHT22;6775;49.574;11.170;2023-05-10T10:01:38;18.00;99.90
13409;DHT22;6775;49.574;11.170;2023-05-10T10:04:08;17.90;99.90
13409;DHT22;6775;49.574;11.170;2023-05-10T10:06:36;17.70;99.90
13409;DHT22;6775;49.574;11.170;2023-05-10T10:09:05;17.40;99.90
13409;DHT22;6775;49.574;11.170;2023-05-10T10:11:34;17.00;99.90
13409;DHT22;6775;49.574;11.170;2023-05-10T10:14:04;16.80;99.90
13409;DHT22;6775;49.574;11.170;2023-05-10T10:16:32;16.60;99.90
13409;DHT22;6775;49.574;11.170;2023-05-10T10:19:01;16.50;99.90
13409;DHT22;6775;49.574;11.170;2023-05-10T10:21:29;16.40;99.90
13409;DHT22;6775;49.574;11.170;2023-05-10T10:23:57;16.20;99.90
13409;DHT22;6775;49.574;11.170;2023-05-10T10:26:25;16.20;99.90
13409;DHT22;6775;49.574;11.170;2023-05-10T10:29:03;16.20;99.90
13409;DHT22;6775;49.574;11.170;2023-05-10T10:31:39;16.20;99.90
13409;DHT22;6775;49.574;11.170;2023-05-10T10:34:10;16.20;99.90
13409;DHT22;6775;49.574;11.170;2023-05-10T10:36:40;16.30;99.90
13409;DHT22;6775;49.574;11.170;2023-05-10T10:39:11;16.40;99.90
13409;DHT22;6775;49.574;11.170;2023-05-10T10:41:39;16.60;99.90
13409;DHT22;6775;49.574;11.170;2023-05-10T10:44:37;16.90;99.90
13409;DHT22;6775;49.574;11.170;2023-05-10T10:47:22;17.30;99.90
13409;DHT22;6775;49.574;11.170;2023-05-10T10:50:04;17.60;99.90
13409;DHT22;6775;49.574;11.170;2023-05-10T10:52:33;18.00;99.90
13409;DHT22;6775;49.574;11.170;2023-05-10T10:55:04;18.40;99.90
13409;DHT22;6775;49.574;11.170;2023-05-10T10:57:42;18.80;99.90
13409;DHT22;6775;49.574;11.170;2023-05-10T11:00:24;19.00;99.90
13409;DHT22;6775;49.574;11.170;2023-05-10T11:02:56;19.00;99.90
13409;DHT22;6775;49.574;11.170;2023-05-10T11:05:33;18.90;99.90
13409;DHT22;6775;49.574;11.170;2023-05-10T11:08:09;18.70;99.90
13409;DHT22;6775;49.574;11.170;2023-05-10T11:10:37;18.60;99.90
13409;DHT22;6775;49.574;11.170;2023-05-10T11:13:06;18.60;99.90
13409;DHT22;6775;49.574;11.170;2023-05-10T11:15:36;18.60;99.90
13409;DHT22;6775;49.574;11.170;2023-05-10T11:18:23;18.50;99.90
13409;DHT22;6775;49.574;11.170;2023-05-10T11:20:52;18.50;99.90
13409;DHT22;6775;49.574;11.170;2023-05-10T11:23:22;18.40;99.90
13409;DHT22;6775;49.574;11.170;2023-05-10T11:25:51;18.40;99.90
13409;DHT22;6775;49.574;11.170;2023-05-10T11:28:19;18.40;99.90
13409;DHT22;6775;49.574;11.170;2023-05-10T11:30:47;18.30;99.90
13409;DHT22;6775;49.574;11.170;2023-05-10T11:33:16;18.10;99.90
13409;DHT22;6775;49.574;11.170;2023-05-10T11:35:46;17.90;99.90
13409;DHT22;6775;49.574;11.170;2023-05-10T11:38:14;17.80;99.90
13409;DHT22;6775;49.574;11.170;2023-05-10T11:40:42;17.70;99.90
13409;DHT22;6775;49.574;11.170;2023-05-10T11:43:10;17.60;99.90
13409;DHT22;6775;49.574;11.170;2023-05-10T11:45:41;17.40;99.90
13409;DHT22;6775;49.574;11.170;2023-05-10T11:48:08;17.30;99.90
13409;DHT22;6775;49.574;11.170;2023-05-10T11:50:36;17.20;99.90
13409;DHT22;6775;49.574;11.170;2023-05-10T11:53:06;17.20;99.90
13409;DHT22;6775;49.574;11.170;2023-05-10T11:55:34;17.20;99.90
13409;DHT22;6775;49.574;11.170;2023-05-10T11:58:02;17.20;99.90
13409;DHT22;6775;49.574;11.170;2023-05-10T12:00:30;17.10;99.90
13409;DHT22;6775;49.574;11.170;2023-05-10T12:03:00;17.10;99.90
13409;DHT22;6775;49.574;11.170;2023-05-10T12:05:31;17.20;99.90
13409;DHT22;6775;49.574;11.170;2023-05-10T12:08:12;17.20;99.90
13409;DHT22;6775;49.574;11.170;2023-05-10T12:10:40;17.30;99.90
13409;DHT22;6775;49.574;11.170;2023-05-10T12:13:12;17.40;99.90
13409;DHT22;6775;49.574;11.170;2023-05-10T12:15:42;17.50;99.90
13409;DHT22;6775;49.574;11.170;2023-05-10T12:18:10;17.70;99.90
13409;DHT22;6775;49.574;11.170;2023-05-10T12:20:38;17.80;99.90
13409;DHT22;6775;49.574;11.170;2023-05-10T12:23:08;17.90;99.90
13409;DHT22;6775;49.574;11.170;2023-05-10T12:25:38;18.10;99.90
13409;DHT22;6775;49.574;11.170;2023-05-10T12:28:07;18.30;99.90
13409;DHT22;6775;49.574;11.170;2023-05-10T12:30:36;18.50;99.90
13409;DHT22;6775;49.574;11.170;2023-05-10T12:33:08;18.80;99.90
13409;DHT22;6775;49.574;11.170;2023-05-10T12:35:44;19.10;99.90
13409;DHT22;6775;49.574;11.170;2023-05-10T12:38:26;19.30;99.90
13409;DHT22;6775;49.574;11.170;2023-05-10T12:40:57;19.40;99.90
13409;DHT22;6775;49.574;11.170;2023-05-10T12:43:25;19.50;99.90
13409;DHT22;6775;49.574;11.170;2023-05-10T12:45:53;19.50;99.90
13409;DHT22;6775;49.574;11.170;2023-05-10T12:48:21;19.60;99.90
13409;DHT22;6775;49.574;11.170;2023-05-10T12:50:49;19.60;99.90
13409;DHT22;6775;49.574;11.170;2023-05-10T12:53:17;19.60;99.90
13409;DHT22;6775;49.574;11.170;2023-05-10T12:55:44;19.50;99.90
13409;DHT22;6775;49.574;11.170;2023-05-10T12:58:14;19.40;99.90
13409;DHT22;6775;49.574;11.170;2023-05-10T13:01:00;19.40;99.90
13409;DHT22;6775;49.574;11.170;2023-05-10T13:03:28;19.40;99.90
13409;DHT22;6775;49.574;11.170;2023-05-10T13:05:57;19.40;99.90
13409;DHT22;6775;49.574;11.170;2023-05-10T13:08:24;19.40;99.90
13409;DHT22;6775;49.574;11.170;2023-05-10T13:10:52;19.30;99.90
13409;DHT22;6775;49.574;11.170;2023-05-10T13:13:21;19.20;99.90
13409;DHT22;6775;49.574;11.170;2023-05-10T13:15:49;19.20;99.90
13409;DHT22;6775;49.574;11.170;2023-05-10T13:18:17;19.10;99.90
13409;DHT22;6775;49.574;11.170;2023-05-10T13:20:45;19.00;99.90
13409;DHT22;6775;49.574;11.170;2023-05-10T13:23:13;18.90;99.90
13409;DHT22;6775;49.574;11.170;2023-05-10T13:25:40;18.80;99.90
13409;DHT22;6775;49.574;11.170;2023-05-10T13:28:08;18.80;99.90
13409;DHT22;6775;49.574;11.170;2023-05-10T13:30:37;18.90;99.90
13409;DHT22;6775;49.574;11.170;2023-05-10T13:33:05;18.90;99.90
13409;DHT22;6775;49.574;11.170;2023-05-10T13:35:33;18.90;99.90
13409;DHT22;6775;49.574;11.170;2023-05-10T13:38:01;18.80;99.90
13409;DHT22;6775;49.574;11.170;2023-05-10T13:40:28;18.80;99.90
13409;DHT22;6775;49.574;11.170;2023-05-10T13:42:56;18.70;99.90
13409;DHT22;6775;49.574;11.170;2023-05-10T13:45:24;18.60;99.90
13409;DHT22;6775;49.574;11.170;2023-05-10T13:47:53;18.60;99.90
13409;DHT22;6775;49.574;11.170;2023-05-10T13:50:21;18.60;99.90
13409;DHT22;6775;49.574;11.170;2023-05-10T13:52:49;18.70;99.90
13409;DHT22;6775;49.574;11.170;2023-05-10T13:55:17;18.80;99.90
13409;DHT22;6775;49.574;11.170;2023-05-10T13:57:45;18.80;99.90
13409;DHT22;6775;49.574;11.170;2023-05-10T14:00:13;18.80;99.90
13409;DHT22;6775;49.574;11.170;2023-05-10T14:02:41;18.80;99.90
13409;DHT22;6775;49.574;11.170;2023-05-10T14:05:10;18.80;99.90
13409;DHT22;6775;49.574;11.170;2023-05-10T14:07:38;18.80;99.90
13409;DHT22;6775;49.574;11.170;2023-05-10T14:10:07;18.70;99.90
13409;DHT22;6775;49.574;11.170;2023-05-10T14:12:34;18.70;99.90
13409;DHT22;6775;49.574;11.170;2023-05-10T14:15:03;18.60;99.90
13409;DHT22;6775;49.574;11.170;2023-05-10T14:17:33;18.60;99.90
13409;DHT22;6775;49.574;11.170;2023-05-10T14:20:01;18.50;99.90
13409;DHT22;6775;49.574;11.170;2023-05-10T14:22:30;18.40;99.90
13409;DHT22;6775;49.574;11.170;2023-05-10T14:24:58;18.40;99.90
13409;DHT22;6775;49.574;11.170;2023-05-10T14:27:26;18.30;99.90
13409;DHT22;6775;49.574;11.170;2023-05-10T14:29:53;18.20;99.90
13409;DHT22;6775;49.574;11.170;2023-05-10T14:32:21;18.10;99.90
13409;DHT22;6775;49.574;11.170;2023-05-10T14:34:49;18.10;99.90
13409;DHT22;6775;49.574;11.170;2023-05-10T14:37:17;18.00;99.90
13409;DHT22;6775;49.574;11.170;2023-05-10T14:39:46;17.80;99.90
13409;DHT22;6775;49.574;11.170;2023-05-10T14:42:14;17.70;99.90
13409;DHT22;6775;49.574;11.170;2023-05-10T14:44:41;17.60;99.90
13409;DHT22;6775;49.574;11.170;2023-05-10T14:47:09;17.60;99.90
13409;DHT22;6775;49.574;11.170;2023-05-10T14:49:38;17.50;99.90
13409;DHT22;6775;49.574;11.170;2023-05-10T14:52:06;17.30;99.90
13409;DHT22;6775;49.574;11.170;2023-05-10T14:54:33;17.20;99.90
13409;DHT22;6775;49.574;11.170;2023-05-10T14:57:03;17.10;99.90
13409;DHT22;6775;49.574;11.170;2023-05-10T14:59:30;17.00;99.90
13409;DHT22;6775;49.574;11.170;2023-05-10T15:01:59;17.00;99.90
13409;DHT22;6775;49.574;11.170;2023-05-10T15:04:27;16.90;99.90
13409;DHT22;6775;49.574;11.170;2023-05-10T15:06:56;16.80;99.90
13409;DHT22;6775;49.574;11.170;2023-05-10T15:09:25;16.80;99.90
13409;DHT22;6775;49.574;11.170;2023-05-10T15:11:54;16.70;99.90
13409;DHT22;6775;49.574;11.170;2023-05-10T15:14:23;16.80;99.90
13409;DHT22;6775;49.574;11.170;2023-05-10T15:16:51;16.80;99.90
13409;DHT22;6775;49.574;11.170;2023-05-10T15:19:19;16.70;99.90
13409;DHT22;6775;49.574;11.170;2023-05-10T15:21:47;16.70;99.90
13409;DHT22;6775;49.574;11.170;2023-05-10T15:24:15;16.70;99.90
13409;DHT22;6775;49.574;11.170;2023-05-10T15:26:43;16.70;99.90
13409;DHT22;6775;49.574;11.170;2023-05-10T15:29:11;16.60;99.90
13409;DHT22;6775;49.574;11.170;2023-05-10T15:31:47;16.60;99.90
13409;DHT22;6775;49.574;11.170;2023-05-10T15:34:16;16.50;99.90
13409;DHT22;6775;49.574;11.170;2023-05-10T15:36:44;16.30;99.90
13409;DHT22;6775;49.574;11.170;2023-05-10T15:39:12;16.20;99.90
13409;DHT22;6775;49.574;11.170;2023-05-10T15:41:40;16.20;99.90
13409;DHT22;6775;49.574;11.170;2023-05-10T15:44:08;16.10;99.90
13409;DHT22;6775;49.574;11.170;2023-05-10T15:46:35;16.00;99.90